createdAt,value
2022-10-14T00:01:15.934Z,62853.47
2022-10-14T00:03:44.281Z,62853.47
2022-10-14T00:06:21.982Z,62853.47
2022-10-14T00:08:49.646Z,135995.53
2022-10-14T00:11:20.392Z,141899.13
2022-10-14T00:13:55.422Z,141899.13
2022-10-14T00:16:27.109Z,146452.81
2022-10-14T00:18:54.710Z,148201.53
2022-10-14T00:21:23.375Z,148207.72
2022-10-14T00:23:51.229Z,148899.78
2022-10-14T00:26:21.023Z,149958.53
2022-10-14T00:28:49.166Z,147854.94
2022-10-14T00:31:17.449Z,147478.88
2022-10-14T00:34:01.403Z,62853.47
2022-10-14T00:36:29.050Z,147118.88
2022-10-14T00:38:56.710Z,150261.44
2022-10-14T00:41:27.961Z,151316.66
2022-10-14T00:43:59.871Z,154457.38
2022-10-14T00:46:29.713Z,154812.25
2022-10-14T00:49:00.422Z,154812.25
2022-10-14T00:51:28.832Z,154812.25
2022-10-14T00:53:56.597Z,154832.88
2022-10-14T00:56:27.217Z,154819.94
2022-10-14T00:59:07.578Z,62853.47
2022-10-14T01:01:40.535Z,62853.47
2022-10-14T01:04:09.858Z,62853.47
2022-10-14T01:06:46.834Z,62853.47
2022-10-14T01:09:26.383Z,62853.47
2022-10-14T01:12:27.479Z,62853.47
2022-10-14T01:15:13.139Z,62853.47
2022-10-14T01:17:51.731Z,62853.47
2022-10-14T01:20:57.258Z,62853.47
2022-10-14T01:24:15.713Z,62853.47
2022-10-14T01:27:21.114Z,62853.47
2022-10-14T01:31:08.154Z,62853.47
2022-10-14T01:33:59.746Z,154819.94
2022-10-14T01:37:31.635Z,62853.47
2022-10-14T01:41:03.607Z,62853.47
2022-10-14T01:43:38.842Z,62853.47
2022-10-14T01:46:09.031Z,154736.09
2022-10-14T01:48:39.946Z,154719.34
2022-10-14T01:51:14.366Z,62853.47
2022-10-14T01:53:46.840Z,62853.47
2022-10-14T01:56:17.169Z,62853.47
2022-10-14T01:58:46.649Z,62853.47
2022-10-14T02:01:16.010Z,62853.47
2022-10-14T02:03:45.833Z,62853.47
2022-10-14T02:06:18.917Z,62853.47
2022-10-14T02:09:00.070Z,62853.47
2022-10-14T02:11:30.950Z,62853.47
2022-10-14T02:14:16.406Z,62853.47
2022-10-14T02:16:56.699Z,62853.47
2022-10-14T02:19:29.327Z,62853.47
2022-10-14T02:22:02.824Z,62853.47
2022-10-14T02:24:34.893Z,154785.16
2022-10-14T02:27:06.553Z,154778.69
2022-10-14T02:29:36.172Z,154776.09
2022-10-14T02:32:07.311Z,154773.53
2022-10-14T02:34:36.106Z,154779.97
2022-10-14T02:37:05.510Z,154770.94
2022-10-14T02:39:37.887Z,154761.88
2022-10-14T02:42:06.344Z,154760.66
2022-10-14T02:44:33.905Z,154770.94
2022-10-14T02:47:01.815Z,154765.78
2022-10-14T02:49:30.758Z,154756.78
2022-10-14T02:51:58.349Z,154760.66
2022-10-14T02:54:25.873Z,154768.34
2022-10-14T02:56:53.438Z,154768.34
2022-10-14T02:59:21.030Z,154781.28
2022-10-14T03:01:49.820Z,154788.97
2022-10-14T03:04:17.399Z,154787.69
2022-10-14T03:06:46.294Z,154790.28
2022-10-14T03:09:13.841Z,154794.16
2022-10-14T03:11:41.381Z,154809.66
2022-10-14T03:14:08.975Z,154786.44
2022-10-14T03:16:36.528Z,154772.22
2022-10-14T03:19:04.157Z,62853.47
2022-10-14T03:21:31.953Z,154763.03
2022-10-14T03:24:01.609Z,154745.00
2022-10-14T03:26:29.672Z,154389.16
2022-10-14T03:28:57.389Z,154768.34
2022-10-14T03:31:24.938Z,154773.53
2022-10-14T03:33:52.493Z,154769.66
2022-10-14T03:36:20.565Z,154386.56
2022-10-14T03:38:48.110Z,154745.00
2022-10-14T03:41:17.003Z,154750.16
2022-10-14T03:43:44.536Z,154746.28
2022-10-14T03:46:12.070Z,154745.16
2022-10-14T03:48:39.617Z,154742.56
2022-10-14T03:51:07.193Z,154752.91
2022-10-14T03:53:35.204Z,154761.88
2022-10-14T03:56:02.837Z,154724.53
2022-10-14T03:58:31.763Z,154760.66
2022-10-14T04:00:59.479Z,154711.59
2022-10-14T04:03:27.033Z,154671.66
2022-10-14T04:05:54.622Z,154712.91
2022-10-14T04:08:22.117Z,154714.19
2022-10-14T04:10:53.351Z,154693.56
2022-10-14T04:13:21.265Z,154721.94
2022-10-14T04:15:50.140Z,154736.09
2022-10-14T04:18:17.680Z,154709.06
2022-10-14T04:20:45.205Z,154733.56
2022-10-14T04:23:12.789Z,154718.06
2022-10-14T04:25:40.470Z,154741.28
2022-10-14T04:28:08.012Z,154725.81
2022-10-14T04:30:35.496Z,154727.09
2022-10-14T04:33:04.397Z,154727.09
2022-10-14T04:35:31.905Z,154727.09
2022-10-14T04:37:59.398Z,154737.41
2022-10-14T04:40:26.919Z,154728.41
2022-10-14T04:42:58.240Z,154755.47
2022-10-14T04:45:26.400Z,154763.19
2022-10-14T04:47:53.953Z,154778.69
2022-10-14T04:50:22.819Z,154778.69
2022-10-14T04:52:50.346Z,154781.28
2022-10-14T04:55:18.038Z,154758.06
2022-10-14T04:57:45.765Z,154770.94
2022-10-14T05:00:14.503Z,154745.16
2022-10-14T05:02:42.133Z,154770.94
2022-10-14T05:05:10.117Z,154809.66
2022-10-14T05:07:39.244Z,152991.94
2022-10-14T05:10:09.670Z,154757.91
2022-10-14T05:12:38.131Z,154757.91
2022-10-14T05:15:07.227Z,154745.16
2022-10-14T05:17:36.311Z,154763.19
2022-10-14T05:20:04.191Z,154781.28
2022-10-14T05:22:31.758Z,154787.53
2022-10-14T05:25:00.654Z,153040.38
2022-10-14T05:27:28.183Z,153762.22
2022-10-14T05:29:55.910Z,152011.44
2022-10-14T05:32:23.814Z,150261.44
2022-10-14T05:34:51.567Z,148815.41
2022-10-14T05:37:19.106Z,150604.34
2022-10-14T05:39:46.664Z,149527.03
2022-10-14T05:42:15.564Z,149535.75
2022-10-14T05:44:43.310Z,150579.25
2022-10-14T05:47:11.234Z,151290.16
2022-10-14T05:49:38.903Z,151641.91
2022-10-14T05:52:06.750Z,151645.72
2022-10-14T05:54:34.364Z,150258.94
2022-10-14T05:57:01.918Z,149543.25
2022-10-14T05:59:31.206Z,150242.69
2022-10-14T06:01:58.774Z,150591.81
2022-10-14T06:04:26.712Z,150562.97
2022-10-14T06:06:54.311Z,150903.25
2022-10-14T06:09:21.974Z,153728.94
2022-10-14T06:11:49.511Z,154092.44
2022-10-14T06:14:17.167Z,153754.56
2022-10-14T06:16:46.239Z,149866.09
2022-10-14T06:19:14.166Z,152708.84
2022-10-14T06:21:41.738Z,150944.75
2022-10-14T06:24:09.527Z,151631.81
2022-10-14T06:27:51.013Z,154858.72
2022-10-14T06:30:18.874Z,154902.56
2022-10-14T06:32:47.805Z,152069.75
2022-10-14T06:35:15.481Z,149608.03
2022-10-14T06:37:45.791Z,149267.56
2022-10-14T06:40:13.559Z,151732.91
2022-10-14T06:42:41.122Z,153878.88
2022-10-14T06:45:09.141Z,151432.63
2022-10-14T06:47:36.702Z,145434.03
2022-10-14T06:50:06.072Z,145098.38
2022-10-14T06:52:33.613Z,145466.72
2022-10-14T06:55:01.178Z,143713.75
2022-10-14T06:57:28.939Z,141958.13
2022-10-14T06:59:56.470Z,139158.22
2022-10-14T07:02:24.917Z,139535.66
2022-10-14T07:04:52.838Z,138479.91
2022-10-14T07:07:21.752Z,141304.38
2022-10-14T07:09:49.494Z,143091.13
2022-10-14T07:12:17.056Z,139575.13
2022-10-14T07:14:44.586Z,141004.94
2022-10-14T07:17:12.188Z,137872.59
2022-10-14T07:19:39.718Z,129840.59
2022-10-14T07:22:07.330Z,126686.97
2022-10-14T07:24:36.279Z,128820.75
2022-10-14T07:29:36.656Z,126720.66
2022-10-14T07:32:04.989Z,126733.31
2022-10-14T07:34:33.634Z,118709.50
2022-10-14T07:37:01.474Z,121866.00
2022-10-14T07:39:29.101Z,119781.13
2022-10-14T07:41:58.038Z,118740.06
2022-10-14T07:44:27.334Z,117288.09
2022-10-14T07:46:55.657Z,125317.97
2022-10-14T07:49:24.002Z,125329.41
2022-10-14T07:51:52.422Z,124294.28
2022-10-14T07:54:23.274Z,123991.13
2022-10-14T07:56:51.706Z,119472.78
2022-10-14T07:59:22.030Z,114292.56
2022-10-14T08:01:51.377Z,100406.56
2022-10-14T08:04:19.701Z,100443.22
2022-10-14T08:06:48.632Z,93868.13
2022-10-14T08:09:16.721Z,94548.06
2022-10-14T08:11:45.250Z,96279.31
2022-10-14T08:14:13.367Z,96977.84
2022-10-14T08:16:42.282Z,92128.78
2022-10-14T08:19:14.610Z,93513.03
2022-10-14T08:21:43.362Z,89720.03
2022-10-14T08:24:11.782Z,85922.00
2022-10-14T08:26:41.179Z,92508.91
2022-10-14T08:29:11.647Z,87324.78
2022-10-14T08:31:39.250Z,84212.00
2022-10-14T08:34:08.173Z,81471.44
2022-10-14T08:36:35.674Z,76650.84
2022-10-14T08:39:03.338Z,74242.09
2022-10-14T08:41:52.996Z,75277.94
2022-10-14T08:44:23.950Z,75635.88
2022-10-14T08:46:53.178Z,67043.78
2022-10-14T08:49:27.268Z,64309.81
2022-10-14T08:51:59.878Z,64988.59
2022-10-14T08:54:33.296Z,58142.78
2022-10-14T08:57:02.045Z,62937.53
2022-10-14T08:59:29.808Z,61231.09
2022-10-14T09:02:01.773Z,58140.38
2022-10-14T09:04:39.435Z,56765.81
2022-10-14T09:07:07.420Z,61223.47
2022-10-14T09:09:42.680Z,68756.97
2022-10-14T09:12:15.940Z,81147.59
2022-10-14T09:14:47.164Z,74962.47
2022-10-14T09:17:20.075Z,71523.94
2022-10-14T09:19:53.190Z,71867.25
2022-10-14T09:22:21.319Z,74618.91
2022-10-14T09:24:49.251Z,73251.63
2022-10-14T09:27:18.416Z,71876.78
2022-10-14T09:29:49.609Z,70508.88
2022-10-14T09:32:27.586Z,66394.13
2022-10-14T09:34:57.965Z,59538.00
2022-10-14T09:37:28.020Z,56811.22
2022-10-14T09:39:58.141Z,54069.94
2022-10-14T09:42:37.003Z,53394.22
2022-10-14T09:45:11.135Z,45188.25
2022-10-14T09:47:47.298Z,48262.34
2022-10-14T09:50:27.121Z,57850.31
2022-10-14T09:53:01.435Z,63675.47
2022-10-14T09:55:29.730Z,63335.31
2022-10-14T09:58:05.303Z,68842.13
2022-10-14T10:00:35.496Z,69183.78
2022-10-14T10:03:03.232Z,68845.56
2022-10-14T10:05:34.002Z,78479.16
2022-10-14T10:08:04.362Z,72287.94
2022-10-14T10:10:35.028Z,73684.34
2022-10-14T10:13:03.127Z,71278.84
2022-10-14T10:15:30.870Z,57536.75
2022-10-14T10:17:58.757Z,61314.19
2022-10-14T10:20:33.337Z,59601.91
2022-10-14T10:23:25.199Z,62694.53
2022-10-14T10:25:53.511Z,55148.06
2022-10-14T10:28:31.988Z,43865.09
2022-10-14T10:31:07.779Z,25463.84
2022-10-14T10:33:44.414Z,-17269.22
2022-10-14T10:36:20.608Z,-20427.53
2022-10-14T10:38:59.986Z,-20420.84
2022-10-14T10:41:51.209Z,-20417.81
2022-10-14T10:44:44.783Z,-20414.31
2022-10-14T10:47:25.337Z,-20415.38
2022-10-14T10:50:10.037Z,-20414.75
2022-10-14T10:52:52.904Z,-20410.19
2022-10-14T10:55:30.309Z,-20414.59
2022-10-14T10:58:10.079Z,-20413.53
2022-10-14T11:00:46.925Z,-20415.81
2022-10-14T11:03:44.647Z,-19504.19
2022-10-14T11:06:38.380Z,-20411.56
2022-10-14T11:09:29.222Z,-19338.72
2022-10-14T11:12:07.265Z,-17860.75
2022-10-14T11:14:51.368Z,-13077.66
2022-10-14T11:17:27.727Z,-9682.94
2022-10-14T11:20:04.711Z,-13042.81
2022-10-14T11:22:51.850Z,-16899.75
2022-10-14T11:25:27.024Z,-20420.84
2022-10-14T11:28:05.581Z,-20425.88
2022-10-14T11:30:43.952Z,-20431.22
2022-10-14T11:33:24.685Z,-20431.22
2022-10-14T11:36:01.019Z,-20433.94
2022-10-14T11:38:41.272Z,-20439.13
2022-10-14T11:41:18.261Z,-20436.84
2022-10-14T11:43:55.118Z,-20437.00
2022-10-14T11:46:27.600Z,-20438.97
2022-10-14T11:48:59.101Z,-20434.09
2022-10-14T11:51:35.667Z,-20436.22
2022-10-14T11:54:06.499Z,-20432.72
2022-10-14T11:56:42.318Z,-20434.84
2022-10-14T11:59:55.282Z,-20437.00
2022-10-14T12:02:35.215Z,-20443.69
2022-10-14T12:05:11.091Z,-20444.59
2022-10-14T12:07:44.486Z,-20446.13
2022-10-14T12:10:21.240Z,-20447.34
2022-10-14T12:12:50.741Z,-20449.16
2022-10-14T12:15:23.486Z,-20449.63
2022-10-14T12:17:55.046Z,-20454.34
2022-10-14T12:20:40.173Z,-20453.88
2022-10-14T12:23:12.214Z,-20464.38
2022-10-14T12:25:51.637Z,-20472.75
2022-10-14T12:28:22.117Z,-20462.25
2022-10-14T12:30:51.581Z,-20470.59
2022-10-14T12:33:23.022Z,-20473.19
2022-10-14T12:36:00.877Z,-20470.47
2022-10-14T12:38:30.569Z,-20474.41
2022-10-14T12:41:34.138Z,-20467.56
2022-10-14T12:44:04.031Z,-20467.56
2022-10-14T12:46:32.412Z,-20472.75
2022-10-14T12:49:01.350Z,-20469.38
2022-10-14T12:51:29.171Z,-20460.72
2022-10-14T12:54:07.919Z,-20461.19
2022-10-14T12:56:40.155Z,-20463.31
2022-10-14T12:59:09.958Z,-20466.06
2022-10-14T13:01:37.940Z,-20466.97
2022-10-14T13:04:19.966Z,-20465.44
2022-10-14T13:07:40.413Z,-20457.38
2022-10-14T13:10:47.172Z,-20463.91
2022-10-14T13:13:49.446Z,-20461.50
2022-10-14T13:16:50.217Z,-20469.84
2022-10-14T13:19:49.212Z,-20467.72
2022-10-14T13:22:40.249Z,-20473.97
2022-10-14T13:25:19.886Z,-20474.25
2022-10-14T13:27:57.294Z,-20478.06
2022-10-14T13:30:34.951Z,-20482.63
2022-10-14T13:33:13.061Z,-20482.47
2022-10-14T13:35:52.810Z,-20474.88
2022-10-14T13:38:23.604Z,-20472.59
2022-10-14T13:40:52.982Z,-20473.50
2022-10-14T13:43:26.663Z,-20470.75
2022-10-14T13:45:58.622Z,-20469.53
2022-10-14T13:48:33.267Z,-20472.88
2022-10-14T13:51:32.029Z,-20472.59
2022-10-14T13:54:15.850Z,-20477.31
2022-10-14T13:56:44.445Z,-20479.44
2022-10-14T13:59:43.137Z,-20482.47
2022-10-14T14:02:15.774Z,-20480.50
2022-10-14T14:04:49.626Z,-20483.38
2022-10-14T14:08:14.177Z,-20481.41
2022-10-14T14:10:12.022Z,-20480.50
2022-10-14T14:12:43.401Z,-20475.63
2022-10-14T14:15:19.921Z,-20469.84
2022-10-14T14:17:47.754Z,-20464.22
2022-10-14T14:20:21.144Z,-20059.59
2022-10-14T14:22:50.469Z,-20461.34
2022-10-14T14:25:34.921Z,-20463.91
2022-10-14T14:28:31.743Z,-13539.53
2022-10-14T14:30:59.539Z,-3297.72
2022-10-14T14:33:30.599Z,-4984.25
2022-10-14T14:36:00.776Z,1093.13
2022-10-14T14:38:31.384Z,-5660.00
2022-10-14T14:41:04.112Z,-20462.84
2022-10-14T14:43:36.432Z,-20455.84
2022-10-14T14:46:06.697Z,-20453.56
2022-10-14T14:48:35.883Z,-20455.84
2022-10-14T14:51:03.765Z,-20451.13
2022-10-14T14:53:32.858Z,-20454.78
2022-10-14T14:56:10.431Z,-20456.63
2022-10-14T14:58:49.180Z,-20455.41
2022-10-14T15:01:21.307Z,-20454.78
2022-10-14T15:04:12.584Z,-20456.47
2022-10-14T15:06:51.267Z,-20454.94
2022-10-14T15:09:25.307Z,-20455.84
2022-10-14T15:11:55.915Z,-20452.66
2022-10-14T15:14:30.667Z,-20449.63
2022-10-14T15:16:58.345Z,-20451.13
2022-10-14T15:19:35.678Z,-20452.50
2022-10-14T15:22:26.967Z,-20451.91
2022-10-14T15:25:10.624Z,-20452.81
2022-10-14T15:27:52.768Z,-20451.91
2022-10-14T15:30:27.121Z,-20451.00
2022-10-14T15:32:58.260Z,-20451.91
2022-10-14T15:35:26.987Z,-20451.00
2022-10-14T15:37:54.961Z,-20450.38
2022-10-14T15:40:27.369Z,-20449.31
2022-10-14T15:42:55.042Z,-20451.00
2022-10-14T15:45:23.131Z,-20451.44
2022-10-14T15:47:54.408Z,-20450.53
2022-10-14T15:50:25.198Z,-20450.69
2022-10-14T15:52:54.239Z,-20448.56
2022-10-14T15:55:25.898Z,-20445.50
2022-10-14T15:57:53.902Z,-20443.22
2022-10-14T16:00:23.860Z,-20441.88
2022-10-14T16:02:55.294Z,-20440.50
2022-10-14T16:05:23.146Z,-20439.41
2022-10-14T16:07:50.991Z,-14862.50
2022-10-14T16:10:21.144Z,-13214.97
2022-10-14T16:12:50.388Z,-597.41
2022-10-14T16:15:28.962Z,6832.91
2022-10-14T16:17:56.519Z,11908.06
2022-10-14T16:20:24.540Z,20384.81
2022-10-14T16:22:52.197Z,33647.22
2022-10-14T16:25:23.886Z,41496.06
2022-10-14T16:27:52.795Z,50389.00
2022-10-14T16:30:20.714Z,53128.88
2022-10-14T16:32:48.526Z,61695.97
2022-10-14T16:35:16.075Z,68564.22
2022-10-14T16:37:43.644Z,74750.28
2022-10-14T16:40:12.692Z,74047.31
2022-10-14T16:42:40.270Z,74386.41
2022-10-14T16:45:10.142Z,56506.69
2022-10-14T16:47:38.082Z,43843.09
2022-10-14T16:50:07.476Z,59583.56
2022-10-14T16:52:56.550Z,63021.31
2022-10-14T16:55:24.734Z,67144.13
2022-10-14T16:57:52.265Z,72991.72
2022-10-14T17:00:21.295Z,69209.06
2022-10-14T17:02:48.916Z,62670.06
2022-10-14T17:05:16.832Z,63351.09
2022-10-14T17:07:44.381Z,64034.78
2022-10-14T17:10:12.058Z,65751.47
2022-10-14T17:12:40.859Z,65749.84
2022-10-14T17:15:09.138Z,66434.38
2022-10-14T17:17:39.907Z,70562.22
2022-10-14T17:20:09.175Z,74692.66
2022-10-14T17:22:36.970Z,77106.38
2022-10-14T17:25:07.374Z,81236.53
2022-10-14T17:27:34.945Z,84329.47
2022-10-14T17:30:02.567Z,91590.94
2022-10-14T17:32:30.202Z,94016.91
2022-10-14T17:34:59.089Z,94020.81
2022-10-14T17:37:26.665Z,92290.88
2022-10-14T17:39:54.201Z,91600.03
2022-10-14T17:42:22.067Z,91253.16
2022-10-14T17:44:49.802Z,95057.75
2022-10-14T17:47:18.048Z,97138.84
2022-10-14T17:49:45.611Z,96791.38
2022-10-14T17:52:14.506Z,99565.69
2022-10-14T17:54:42.055Z,94010.69
2022-10-14T17:57:09.601Z,97831.47
2022-10-14T17:59:37.170Z,93323.47
2022-10-14T18:02:05.387Z,91231.22
2022-10-14T18:04:33.283Z,94006.78
2022-10-14T18:07:00.911Z,93665.16
2022-10-14T18:09:30.053Z,92626.38
2022-10-14T18:12:13.094Z,94361.75
2022-10-14T18:14:41.432Z,92974.91
2022-10-14T18:17:12.122Z,96099.72
2022-10-14T18:19:40.793Z,91593.97
2022-10-14T18:22:08.772Z,92288.59
2022-10-14T18:24:39.172Z,85694.94
2022-10-14T18:34:19.685Z,99196.59
2022-10-14T18:36:47.870Z,99194.91
2022-10-14T18:47:30.261Z,99176.75
2022-10-14T18:49:59.622Z,99180.88
2022-10-14T18:52:27.535Z,99183.16
2022-10-14T18:54:55.273Z,99167.91
2022-10-14T18:57:23.678Z,99169.78
2022-10-14T18:59:51.410Z,99175.06
2022-10-14T19:02:19.088Z,99170.44
2022-10-14T19:04:48.229Z,99163.63
2022-10-14T19:07:16.975Z,99157.91
2022-10-14T19:09:44.718Z,99157.22
2022-10-14T19:12:30.132Z,99159.34
2022-10-14T19:14:58.342Z,99154.19
2022-10-14T19:17:26.006Z,99150.91
2022-10-14T19:19:55.206Z,99150.47
2022-10-14T19:22:23.138Z,99152.72
2022-10-14T19:24:51.076Z,99147.88
2022-10-14T19:27:18.853Z,99144.03
2022-10-14T19:29:46.489Z,99132.94
2022-10-14T19:32:14.157Z,99143.53
2022-10-14T19:34:46.963Z,99136.59
2022-10-14T19:37:16.367Z,99130.56
2022-10-14T19:39:44.089Z,99126.66
2022-10-14T19:42:11.926Z,99120.03
2022-10-14T19:44:39.681Z,99118.66
2022-10-14T19:47:07.598Z,99116.34
2022-10-14T19:49:35.239Z,99118.66
2022-10-14T19:52:03.155Z,99117.06
2022-10-14T19:54:32.161Z,99109.31
2022-10-14T19:56:59.949Z,99102.41
2022-10-14T19:59:27.517Z,99099.78
2022-10-14T20:01:55.142Z,99095.66
2022-10-14T20:04:25.182Z,99097.72
2022-10-14T20:06:55.210Z,99094.84
2022-10-14T20:09:22.726Z,99090.34
2022-10-14T20:11:52.963Z,99089.34
2022-10-14T20:14:20.492Z,99099.44
2022-10-14T20:16:52.192Z,99094.53
2022-10-14T20:19:22.679Z,99088.75
2022-10-14T20:21:50.275Z,99086.72
2022-10-14T20:24:18.023Z,99093.31
2022-10-14T20:26:46.564Z,99085.06
2022-10-14T20:29:15.541Z,99081.78
2022-10-14T20:31:43.064Z,99079.00
2022-10-14T20:34:11.456Z,99078.25
2022-10-14T20:36:39.072Z,99077.75
2022-10-14T20:39:06.607Z,99077.47
2022-10-14T20:41:34.163Z,99076.09
2022-10-14T20:44:01.710Z,99073.41
2022-10-14T20:46:30.774Z,99069.84
2022-10-14T20:48:59.007Z,99062.56
2022-10-14T20:51:27.270Z,99062.16
2022-10-14T20:54:02.615Z,99073.53
2022-10-14T20:56:34.058Z,99063.13
2022-10-14T20:59:03.367Z,99057.06
2022-10-14T21:01:32.897Z,99056.19
2022-10-14T21:04:02.636Z,99054.81
2022-10-14T21:06:30.689Z,99055.28
2022-10-14T21:08:58.877Z,99043.47
2022-10-14T21:11:28.111Z,99039.84
2022-10-14T21:13:57.794Z,99041.44
2022-10-14T21:16:27.544Z,99026.72
2022-10-14T21:18:58.487Z,99024.31
2022-10-14T21:21:28.234Z,99024.50
2022-10-14T21:23:56.373Z,99027.41
2022-10-14T21:26:25.191Z,99032.69
2022-10-14T21:28:53.259Z,99029.34
2022-10-14T21:31:22.274Z,99025.31
2022-10-14T21:33:59.875Z,99012.63
2022-10-14T21:36:30.718Z,99011.66
2022-10-14T21:39:00.641Z,99007.09
2022-10-14T21:41:28.971Z,98995.53
2022-10-14T21:43:58.741Z,98996.47
2022-10-14T21:46:27.925Z,98994.94
2022-10-14T21:48:58.221Z,98993.03
2022-10-14T21:51:27.851Z,98985.09
2022-10-14T21:53:56.116Z,98984.91
2022-10-14T21:56:24.286Z,98989.84
2022-10-14T21:58:52.064Z,98975.97
2022-10-14T22:01:21.891Z,98978.72
2022-10-14T22:03:54.213Z,98973.19
2022-10-14T22:06:23.217Z,98972.38
2022-10-14T22:08:54.537Z,98969.63
2022-10-14T22:11:24.684Z,98967.03
2022-10-14T22:13:53.538Z,98960.78
2022-10-14T22:16:21.492Z,98954.66
2022-10-14T22:18:51.646Z,98950.25
2022-10-14T22:21:20.833Z,98942.53
2022-10-14T22:23:50.569Z,98943.53
2022-10-14T22:26:20.282Z,98947.38
2022-10-14T22:28:48.396Z,98950.47
2022-10-14T22:31:18.178Z,98948.47
2022-10-14T22:33:46.131Z,98943.81
2022-10-14T22:36:19.467Z,98951.41
2022-10-14T22:38:52.876Z,98938.59
2022-10-14T22:41:21.354Z,98938.06
2022-10-14T22:43:50.221Z,98929.91
2022-10-14T22:46:20.487Z,98932.75
2022-10-14T22:48:48.522Z,98933.00
2022-10-14T22:51:18.615Z,98934.59
2022-10-14T22:53:47.397Z,98931.50
2022-10-14T22:56:18.448Z,98928.34
2022-10-14T22:58:46.691Z,98930.19
2022-10-14T23:01:16.660Z,98926.88
2022-10-14T23:03:44.829Z,98922.03
2022-10-14T23:06:13.857Z,98924.25
2022-10-14T23:08:42.342Z,98925.66
2022-10-14T23:11:14.587Z,98925.59
2022-10-14T23:13:44.302Z,98911.88
2022-10-14T23:16:17.623Z,98921.34
2022-10-14T23:18:46.283Z,98910.63
2022-10-14T23:21:16.448Z,98918.84
2022-10-14T23:23:44.782Z,98913.50
2022-10-14T23:26:13.694Z,98903.34
2022-10-14T23:28:42.895Z,98909.34
2022-10-14T23:31:12.204Z,98905.94
2022-10-14T23:33:40.646Z,98911.38
2022-10-14T23:36:10.312Z,98910.97
2022-10-14T23:38:38.709Z,98905.22
2022-10-14T23:41:08.123Z,98906.97
2022-10-14T23:43:35.970Z,98907.59
2022-10-14T23:46:05.930Z,98908.09
2022-10-14T23:48:33.881Z,98907.81
2022-10-14T23:51:01.446Z,98904.19
2022-10-14T23:53:29.709Z,98906.31
2022-10-14T23:55:58.210Z,98896.13
2022-10-14T23:58:28.374Z,98896.31
